Time;durP1;ratioP1;P1;durP2;ratioP2;P2;SDS_P1;SDS_P2;PMS_P1;PMS_P2;Temp;Humidity;BMP_temperature;BMP_pressure;BME280_temperature;BME280_humidity;BME280_pressure;Samples;Min_cycle;Max_cycle;Signal;HPM_P1;HPM_P2
2022/01/05 00:00:27;;;;;;;2.93;2.07;;;18.30;59.10;18.90;99206.00;;;;5048323;28;20521;-40
2022/01/05 00:02:53;;;;;;;3.80;2.40;;;18.30;59.00;18.90;99207.00;;;;5048249;28;20208;-40
2022/01/05 00:05:19;;;;;;;3.80;1.97;;;18.30;59.10;18.90;99206.00;;;;5048285;28;20174;-41
2022/01/05 00:07:45;;;;;;;3.83;2.17;;;18.20;59.10;18.80;99215.00;;;;5051854;28;20197;-47
2022/01/05 00:10:11;;;;;;;2.60;2.00;;;18.20;59.10;18.80;99217.00;;;;5058193;28;20172;-41
2022/01/05 00:12:37;;;;;;;3.87;2.03;;;18.10;58.90;18.80;99213.00;;;;5047723;28;20275;-41
2022/01/05 00:15:03;;;;;;;3.47;2.10;;;18.10;59.00;18.80;99222.00;;;;5048493;28;20716;-41
2022/01/05 00:17:29;;;;;;;3.60;2.10;;;18.00;58.90;18.70;99215.00;;;;5048810;28;20194;-40
2022/01/05 00:19:55;;;;;;;2.47;1.90;;;17.90;59.00;18.70;99218.00;;;;5056257;28;20295;-40
2022/01/05 00:22:21;;;;;;;2.30;1.80;;;18.00;59.00;18.70;99201.00;;;;5053970;28;20217;-40
2022/01/05 00:24:47;;;;;;;3.00;1.80;;;17.90;58.90;18.60;99219.00;;;;5047583;28;20173;-41
2022/01/05 00:27:12;;;;;;;2.33;1.80;;;17.90;58.90;18.60;99216.00;;;;5047648;28;20190;-40
2022/01/05 00:29:38;;;;;;;2.80;1.93;;;17.80;58.90;18.60;99229.00;;;;5047330;28;20177;-41
2022/01/05 00:32:04;;;;;;;2.83;1.80;;;17.80;59.00;18.60;99239.00;;;;5046959;28;20676;-40
2022/01/05 00:34:30;;;;;;;2.80;1.90;;;17.80;58.80;18.50;99224.00;;;;5047506;28;20183;-40
2022/01/05 00:36:56;;;;;;;3.23;1.90;;;17.70;58.60;18.50;99238.00;;;;5047621;28;20193;-40
2022/01/05 00:39:22;;;;;;;2.73;1.80;;;17.70;58.90;18.50;99238.00;;;;5047609;28;20567;-40
2022/01/05 00:41:47;;;;;;;2.30;1.70;;;17.60;58.50;18.40;99251.00;;;;5048889;28;20256;-40
2022/01/05 00:44:13;;;;;;;2.70;1.90;;;17.60;58.60;18.40;99243.00;;;;5049523;28;20261;-40
2022/01/05 00:46:39;;;;;;;2.13;1.70;;;17.60;58.60;18.40;99237.00;;;;5049674;28;20203;-40
2022/01/05 00:49:04;;;;;;;2.20;1.80;;;17.60;58.60;18.40;99242.00;;;;5047335;28;20226;-40
2022/01/05 00:51:30;;;;;;;1.93;1.63;;;17.50;58.50;18.30;99242.00;;;;5047813;28;20186;-41
2022/01/05 00:53:56;;;;;;;2.03;1.83;;;17.50;58.50;18.30;99242.00;;;;5048295;28;20692;-40
2022/01/05 00:56:22;;;;;;;2.60;1.70;;;17.50;58.30;18.30;99252.00;;;;5048826;28;20197;-41
2022/01/05 00:58:47;;;;;;;1.90;1.60;;;17.50;58.50;18.20;99241.00;;;;5048284;28;20233;-41
2022/01/05 01:01:13;;;;;;;1.73;1.53;;;17.40;58.40;18.20;99243.00;;;;5046318;28;20226;-40
2022/01/05 01:03:39;;;;;;;2.40;2.00;;;17.40;58.70;18.20;99242.00;;;;5047624;28;20170;-40
2022/01/05 01:06:05;;;;;;;2.07;1.80;;;17.30;58.50;18.20;99246.00;;;;5047193;28;20179;-40
2022/01/05 01:08:31;;;;;;;1.63;1.53;;;17.30;59.20;18.20;99253.00;;;;5046490;28;20244;-40
2022/01/05 01:10:57;;;;;;;2.33;1.80;;;17.30;58.60;18.10;99246.00;;;;5047433;28;20184;-40
2022/01/05 01:13:23;;;;;;;2.57;1.80;;;17.30;58.80;18.10;99243.00;;;;5046917;28;20688;-40
2022/01/05 01:15:49;;;;;;;2.10;1.83;;;17.30;58.70;18.10;99255.00;;;;5046971;28;20182;-40
2022/01/05 01:18:15;;;;;;;2.17;1.60;;;17.30;58.50;18.10;99253.00;;;;5046619;28;20186;-40
2022/01/05 01:20:41;;;;;;;1.50;1.40;;;17.30;58.40;18.10;99264.00;;;;5046784;28;20172;-40
2022/01/05 01:23:07;;;;;;;1.70;1.50;;;17.30;58.40;18.10;99257.00;;;;5046043;28;20304;-40
2022/01/05 01:25:33;;;;;;;1.97;1.70;;;17.30;58.30;18.10;99253.00;;;;5047131;28;20170;-41
2022/01/05 01:27:58;;;;;;;2.53;1.80;;;17.30;58.30;18.10;99267.00;;;;5046956;28;20197;-41
2022/01/05 01:30:24;;;;;;;2.00;1.70;;;17.20;58.20;18.10;99266.00;;;;5047249;28;20174;-40
2022/01/05 01:32:50;;;;;;;2.60;1.90;;;17.20;58.10;18.10;99266.00;;;;5046886;28;20559;-40
2022/01/05 01:35:15;;;;;;;2.33;1.73;;;17.20;58.10;18.10;99259.00;;;;5046630;28;20910;-40
2022/01/05 01:37:41;;;;;;;2.00;1.80;;;17.20;57.80;18.10;99258.00;;;;5046076;28;20560;-40
2022/01/05 01:40:07;;;;;;;2.60;1.80;;;17.10;57.50;18.00;99257.00;;;;5046241;28;20194;-41
2022/01/05 01:42:33;;;;;;;2.50;1.70;;;17.10;58.20;18.00;99259.00;;;;5046529;28;20258;-41
2022/01/05 01:44:58;;;;;;;2.10;1.90;;;17.20;58.00;18.00;99269.00;;;;5046748;28;20181;-41
2022/01/05 01:47:24;;;;;;;2.13;1.80;;;17.10;57.60;18.00;99261.00;;;;5046454;28;20201;-41
2022/01/05 01:49:50;;;;;;;2.57;1.83;;;17.10;57.70;18.00;99272.00;;;;5046317;28;20809;-41
2022/01/05 01:52:15;;;;;;;1.70;1.60;;;17.10;57.60;18.00;99273.00;;;;5045038;28;20178;-41
2022/01/05 01:54:41;;;;;;;1.90;1.50;;;17.00;57.60;18.00;99275.00;;;;5046329;28;20666;-40
2022/01/05 01:57:07;;;;;;;2.17;1.80;;;17.00;57.50;18.00;99273.00;;;;5045962;28;20201;-41
2022/01/05 01:59:33;;;;;;;2.20;1.80;;;17.00;57.60;17.90;99278.00;;;;5044943;28;20627;-41
2022/01/05 02:01:59;;;;;;;2.00;1.50;;;16.90;57.50;17.90;99278.00;;;;5057264;28;20194;-41
2022/01/05 02:04:25;;;;;;;2.23;1.63;;;16.90;57.50;17.90;99275.00;;;;5064926;28;20175;-40
2022/01/05 02:06:51;;;;;;;2.27;1.70;;;16.90;57.60;17.90;99276.00;;;;5046505;28;20225;-42
2022/01/05 02:09:18;;;;;;;1.60;1.50;;;16.90;57.50;17.90;99282.00;;;;5045950;28;20185;-41
2022/01/05 02:11:43;;;;;;;2.40;1.77;;;16.90;57.60;17.90;99281.00;;;;5046106;28;20669;-42
2022/01/05 02:14:09;;;;;;;2.03;1.80;;;16.80;57.50;17.90;99286.00;;;;5046181;28;20218;-40
2022/01/05 02:16:39;;;;;;;2.00;1.70;;;16.80;57.60;17.90;99285.00;;;;5046456;28;20213;-40
2022/01/05 02:19:05;;;;;;;2.00;1.70;;;16.80;57.60;17.80;99289.00;;;;5045845;28;20182;-40
2022/01/05 02:21:36;;;;;;;1.83;1.73;;;16.80;57.40;17.80;99289.00;;;;5045958;28;20200;-41
2022/01/05 02:24:04;;;;;;;1.70;1.60;;;16.80;57.40;17.80;99276.00;;;;5045454;28;20221;-41
2022/01/05 02:26:29;;;;;;;2.33;1.70;;;16.80;57.50;17.80;99293.00;;;;5045585;28;20209;-40
2022/01/05 02:28:55;;;;;;;2.17;1.97;;;16.80;57.70;17.80;99281.00;;;;5044559;28;20172;-40
2022/01/05 02:31:21;;;;;;;2.07;1.80;;;16.80;57.70;17.70;99293.00;;;;5045800;28;20182;-42
2022/01/05 02:33:47;;;;;;;3.07;2.00;;;16.70;57.50;17.70;99292.00;;;;5045284;28;20178;-40
2022/01/05 02:36:16;;;;;;;2.27;2.07;;;16.70;57.60;17.70;99308.00;;;;5045813;28;20224;-41
2022/01/05 02:38:42;;;;;;;2.57;2.00;;;16.60;57.90;17.70;99311.00;;;;5045708;28;20186;-41
2022/01/05 02:41:09;;;;;;;2.47;1.90;;;16.60;57.50;17.70;99315.00;;;;5044677;28;20212;-41
2022/01/05 02:43:36;;;;;;;1.80;1.70;;;16.70;57.70;17.70;99320.00;;;;5045812;28;20216;-40
2022/01/05 02:46:02;;;;;;;2.80;2.00;;;16.70;57.60;17.70;99325.00;;;;5045524;28;20159;-42
2022/01/05 02:48:28;;;;;;;2.67;2.00;;;16.60;57.60;17.60;99326.00;;;;5045435;28;20205;-41
2022/01/05 02:50:57;;;;;;;3.20;2.00;;;16.60;57.70;17.60;99329.00;;;;5045712;28;20177;-41
2022/01/05 02:53:23;;;;;;;2.70;1.87;;;16.50;57.70;17.60;99334.00;;;;5045605;28;20197;-40
2022/01/05 02:55:49;;;;;;;2.93;2.00;;;16.50;57.80;17.60;99335.00;;;;5045960;28;20760;-41
2022/01/05 02:58:15;;;;;;;2.83;2.30;;;16.50;57.80;17.60;99345.00;;;;5045396;28;20679;-42
2022/01/05 03:00:41;;;;;;;3.37;1.90;;;16.50;57.70;17.60;99349.00;;;;5045127;28;20256;-40
2022/01/05 03:03:06;;;;;;;2.23;1.97;;;16.50;57.80;17.60;99347.00;;;;5045262;28;20257;-40
2022/01/05 03:05:32;;;;;;;2.43;2.00;;;16.50;58.10;17.50;99345.00;;;;5045653;28;20682;-41
2022/01/05 03:07:58;;;;;;;2.30;2.00;;;16.40;57.90;17.50;99355.00;;;;5060442;28;20201;-46
2022/01/05 03:10:23;;;;;;;2.83;2.00;;;16.40;57.90;17.50;99348.00;;;;5045291;28;20178;-42
2022/01/05 03:12:49;;;;;;;2.67;1.97;;;16.40;58.00;17.50;99351.00;;;;5045197;28;20658;-41
2022/01/05 03:15:15;;;;;;;2.30;2.00;;;16.30;57.90;17.50;99354.00;;;;5045236;28;20190;-42
2022/01/05 03:17:41;;;;;;;2.67;2.00;;;16.30;58.10;17.40;99357.00;;;;5045096;28;20825;-41
2022/01/05 03:20:07;;;;;;;3.60;2.10;;;16.30;57.90;17.40;99370.00;;;;5045689;28;20202;-41
2022/01/05 03:22:33;;;;;;;2.13;1.80;;;16.30;58.10;17.40;99374.00;;;;5045581;28;20259;-40
2022/01/05 03:24:59;;;;;;;2.30;2.07;;;16.30;57.90;17.40;99384.00;;;;5045190;28;20632;-41
2022/01/05 03:27:24;;;;;;;2.37;2.10;;;16.30;58.10;17.40;99382.00;;;;5044906;28;20204;-40
2022/01/05 03:29:50;;;;;;;2.43;1.90;;;16.30;58.00;17.30;99382.00;;;;5044640;28;20178;-41
2022/01/05 03:32:16;;;;;;;2.87;2.10;;;16.30;58.00;17.30;99385.00;;;;5045541;28;20166;-40
2022/01/05 03:34:44;;;;;;;2.17;1.87;;;16.20;58.00;17.30;99385.00;;;;5045457;28;20184;-41
2022/01/05 03:37:10;;;;;;;3.13;2.10;;;16.20;58.00;17.30;99396.00;;;;5044803;28;20605;-40
2022/01/05 03:39:35;;;;;;;2.63;2.10;;;16.20;58.00;17.30;99408.00;;;;5045075;28;20185;-41
2022/01/05 03:42:01;;;;;;;2.80;1.80;;;16.20;57.90;17.20;99405.00;;;;5060469;28;20198;-40
2022/01/05 03:44:27;;;;;;;2.33;1.90;;;16.20;58.00;17.20;99404.00;;;;5044953;28;20178;-40
2022/01/05 03:46:53;;;;;;;2.63;2.00;;;16.10;58.30;17.20;99402.00;;;;5046728;28;20194;-41
2022/01/05 03:49:18;;;;;;;2.53;2.10;;;16.10;58.20;17.20;99401.00;;;;5048135;28;20171;-40
2022/01/05 03:51:45;;;;;;;2.47;2.00;;;16.10;58.30;17.20;99402.00;;;;5048533;28;20174;-41
2022/01/05 03:54:11;;;;;;;2.67;2.00;;;16.00;58.30;17.20;99401.00;;;;5052555;28;20170;-42
2022/01/05 03:56:37;;;;;;;3.10;2.00;;;16.00;58.30;17.10;99417.00;;;;5052987;28;20238;-41
2022/01/05 03:59:03;;;;;;;2.40;2.00;;;16.00;58.30;17.10;99412.00;;;;5058127;28;20178;-41
2022/01/05 04:01:29;;;;;;;2.80;2.10;;;16.00;58.20;17.10;99428.00;;;;5049093;28;20195;-42
2022/01/05 04:03:54;;;;;;;3.03;2.00;;;15.90;58.30;17.10;99428.00;;;;5048768;28;20170;-41
2022/01/05 04:06:20;;;;;;;3.67;2.37;;;15.90;58.10;17.10;99443.00;;;;5048555;28;20197;-41
2022/01/05 04:08:46;;;;;;;2.77;1.93;;;15.90;58.30;17.00;99436.00;;;;5051254;28;20193;-40
2022/01/05 04:11:11;;;;;;;2.23;2.00;;;15.90;58.30;17.00;99451.00;;;;5050597;28;20514;-40
2022/01/05 04:13:37;;;;;;;3.73;2.10;;;15.90;58.00;17.00;99456.00;;;;5051839;28;20197;-40
2022/01/05 04:16:04;;;;;;;2.80;2.00;;;15.90;58.00;17.00;99456.00;;;;5048838;28;20182;-40
2022/01/05 04:18:30;;;;;;;2.53;1.90;;;15.90;58.40;17.00;99458.00;;;;5048167;28;20171;-41
2022/01/05 04:20:55;;;;;;;3.03;2.27;;;15.80;58.10;17.00;99467.00;;;;5048152;28;20217;-40
2022/01/05 04:23:21;;;;;;;2.83;2.20;;;15.80;58.20;16.90;99467.00;;;;5048291;28;20762;-40
2022/01/05 04:25:47;;;;;;;2.90;2.20;;;15.90;58.60;16.90;99470.00;;;;5047854;28;20185;-41
2022/01/05 04:28:12;;;;;;;5.43;2.43;;;15.90;58.30;16.90;99468.00;;;;5047854;28;20182;-40
2022/01/05 04:30:38;;;;;;;6.37;2.23;;;15.80;58.70;16.90;99485.00;;;;5047672;28;20900;-41
2022/01/05 04:33:04;;;;;;;3.37;1.90;;;15.80;58.50;16.90;99480.00;;;;5048144;28;20573;-41
2022/01/05 04:35:30;;;;;;;2.83;1.90;;;15.70;58.40;16.90;99485.00;;;;5050209;28;20178;-41
2022/01/05 04:37:55;;;;;;;3.63;1.83;;;15.80;58.60;16.80;99485.00;;;;5049586;28;20760;-39
2022/01/05 04:40:21;;;;;;;4.60;2.30;;;15.80;58.40;16.80;99488.00;;;;5048625;28;20240;-40
2022/01/05 04:42:47;;;;;;;6.47;2.20;;;15.70;58.50;16.50;99491.00;;;;5047828;28;20198;-40
2022/01/05 04:45:12;;;;;;;4.43;2.20;;;15.80;58.50;16.80;99496.00;;;;5047529;28;20240;-41
2022/01/05 04:47:38;;;;;;;4.93;2.10;;;15.80;58.40;16.80;99501.00;;;;5046200;28;20281;-41
2022/01/05 04:50:05;;;;;;;2.50;2.00;;;15.70;58.20;16.80;99494.00;;;;5047702;28;20190;-41
2022/01/05 04:52:31;;;;;;;3.30;2.07;;;15.70;58.50;16.80;99501.00;;;;5046856;28;20706;-41
2022/01/05 04:54:56;;;;;;;4.03;1.90;;;15.70;58.30;16.80;99501.00;;;;5047265;28;20232;-41
2022/01/05 04:57:22;;;;;;;3.20;1.93;;;15.70;58.50;16.70;99502.00;;;;5047205;28;20194;-40
2022/01/05 04:59:48;;;;;;;4.87;1.80;;;15.70;58.50;16.70;99511.00;;;;5047065;28;20723;-41
2022/01/05 05:02:14;;;;;;;3.97;2.10;;;15.60;58.60;16.70;99515.00;;;;5047294;28;20202;-43
2022/01/05 05:04:40;;;;;;;6.80;2.10;;;15.60;59.20;16.70;99504.00;;;;5047355;28;20176;-40
2022/01/05 05:07:06;;;;;;;3.50;2.00;;;15.60;58.60;16.70;99510.00;;;;5032869;28;20317;-40
2022/01/05 05:09:31;;;;;;;2.27;2.07;;;15.60;58.70;16.70;99522.00;;;;5044932;28;20183;-41
2022/01/05 05:11:57;;;;;;;2.13;1.80;;;15.60;58.80;16.70;99509.00;;;;5053538;28;20163;-40
2022/01/05 05:14:23;;;;;;;3.17;2.00;;;15.60;58.70;16.60;99511.00;;;;5049945;28;20210;-40
2022/01/05 05:16:48;;;;;;;3.07;1.90;;;15.60;58.80;16.60;99516.00;;;;5048711;28;20209;-42
2022/01/05 05:19:14;;;;;;;3.57;1.90;;;15.50;58.70;16.60;99514.00;;;;5046243;28;20682;-41
2022/01/05 05:21:40;;;;;;;2.50;1.80;;;15.50;58.80;16.60;99508.00;;;;5046962;28;20193;-40
2022/01/05 05:24:06;;;;;;;4.00;2.10;;;15.50;58.90;16.60;99518.00;;;;5048466;28;20539;-40
2022/01/05 05:26:32;;;;;;;3.73;1.80;;;15.50;58.80;16.50;99515.00;;;;5048664;28;20505;-41
2022/01/05 05:28:57;;;;;;;3.50;1.77;;;15.50;58.90;16.50;99516.00;;;;5046583;28;20166;-41
2022/01/05 05:31:23;;;;;;;2.77;2.00;;;15.40;58.90;16.50;99523.00;;;;5046521;28;20174;-40
2022/01/05 05:33:49;;;;;;;2.10;1.90;;;15.40;59.20;16.50;99528.00;;;;5046212;28;20181;-40
2022/01/05 05:36:14;;;;;;;2.87;1.73;;;15.40;59.10;16.50;99525.00;;;;5045966;28;20203;-41
2022/01/05 05:38:40;;;;;;;2.80;1.90;;;15.40;58.90;16.50;99533.00;;;;5046408;28;20539;-42
2022/01/05 05:41:06;;;;;;;2.63;2.00;;;15.40;59.00;16.50;99525.00;;;;5045816;28;20681;-40
2022/01/05 05:43:31;;;;;;;2.33;2.10;;;15.40;59.00;16.40;99538.00;;;;5045797;28;20166;-40
2022/01/05 05:45:57;;;;;;;3.17;2.00;;;15.30;59.20;16.40;99538.00;;;;5045911;28;20169;-40
2022/01/05 05:48:23;;;;;;;3.40;1.90;;;15.30;59.20;16.40;99520.00;;;;5046196;28;20174;-40
2022/01/05 05:50:49;;;;;;;3.27;1.90;;;15.40;59.00;16.40;99518.00;;;;5060825;28;20166;-41
2022/01/05 05:53:15;;;;;;;2.67;1.90;;;15.30;58.90;16.40;99525.00;;;;5049826;28;20171;-40
2022/01/05 05:55:40;;;;;;;4.47;1.70;;;15.30;59.00;16.40;99540.00;;;;5047325;28;20174;-41
2022/01/05 05:58:06;;;;;;;5.70;2.00;;;15.40;58.90;16.30;99527.00;;;;5046259;28;20201;-40
2022/01/05 06:00:32;;;;;;;3.00;2.10;;;15.40;58.80;16.30;99531.00;;;;5046637;28;20316;-41
2022/01/05 06:02:59;;;;;;;3.37;1.87;;;15.30;59.50;16.30;99553.00;;;;5046261;28;20194;-42
2022/01/05 06:05:24;;;;;;;2.63;1.80;;;15.30;58.90;16.30;99543.00;;;;5045648;28;20170;-42
2022/01/05 06:07:50;;;;;;;2.50;1.87;;;15.20;59.10;16.30;99552.00;;;;5045782;28;20567;-40
2022/01/05 06:10:16;;;;;;;2.63;1.90;;;15.20;59.10;16.30;99543.00;;;;5045194;28;20482;-41
2022/01/05 06:12:41;;;;;;;2.63;2.00;;;15.20;59.10;16.30;99543.00;;;;5045506;28;20606;-40
2022/01/05 06:15:08;;;;;;;3.33;1.90;;;15.20;59.10;16.30;99547.00;;;;5045262;28;20186;-41
2022/01/05 06:17:34;;;;;;;2.13;1.93;;;15.20;59.10;16.20;99564.00;;;;5045319;28;20709;-40
2022/01/05 06:19:59;;;;;;;2.83;1.80;;;15.20;59.10;16.20;99571.00;;;;5046557;28;20170;-40
2022/01/05 06:22:26;;;;;;;1.83;1.67;;;15.20;59.10;16.20;99549.00;;;;5045335;28;20198;-40
2022/01/05 06:24:52;;;;;;;2.20;1.90;;;15.20;59.00;16.20;99568.00;;;;5046395;28;20139;-40
2022/01/05 06:27:17;;;;;;;2.47;1.90;;;15.20;59.10;16.20;99572.00;;;;5043728;28;20190;-40
2022/01/05 06:29:43;;;;;;;2.20;1.77;;;15.20;59.10;16.20;99575.00;;;;5045502;28;20170;-41
2022/01/05 06:32:09;;;;;;;2.13;1.80;;;15.20;59.10;16.20;99574.00;;;;5044458;28;20271;-41
2022/01/05 06:34:34;;;;;;;2.10;1.90;;;15.20;59.10;16.10;99582.00;;;;5047058;28;20484;-40
2022/01/05 06:37:00;;;;;;;2.10;1.60;;;15.20;59.10;16.10;99575.00;;;;5046263;28;20536;-41
2022/01/05 06:39:26;;;;;;;2.03;1.73;;;15.10;59.00;16.10;99580.00;;;;5045923;28;20167;-41
2022/01/05 06:41:51;;;;;;;2.60;1.80;;;15.10;59.00;16.10;99578.00;;;;5045617;28;20201;-41
2022/01/05 06:44:17;;;;;;;2.70;1.90;;;15.10;59.00;16.10;99580.00;;;;5045948;28;20775;-42
2022/01/05 06:46:43;;;;;;;1.77;1.60;;;15.20;59.00;16.10;99584.00;;;;5046120;28;20228;-40
2022/01/05 06:49:09;;;;;;;2.23;1.90;;;15.10;59.00;16.10;99583.00;;;;5045164;28;20182;-41
2022/01/05 06:51:34;;;;;;;2.90;1.87;;;15.10;58.90;16.10;99581.00;;;;5045058;28;20173;-40
2022/01/05 06:54:00;;;;;;;2.40;1.70;;;15.10;58.90;16.00;99585.00;;;;5043284;28;20178;-40
2022/01/05 06:56:26;;;;;;;2.30;1.70;;;15.10;58.90;16.00;99589.00;;;;5045344;28;20673;-40
2022/01/05 06:58:52;;;;;;;2.63;1.80;;;15.10;59.00;16.00;99586.00;;;;5044878;28;20181;-41
2022/01/05 07:01:17;;;;;;;2.30;1.83;;;15.10;58.90;16.00;99593.00;;;;5043923;28;20245;-40
2022/01/05 07:03:43;;;;;;;2.80;1.80;;;15.10;58.90;16.00;99598.00;;;;5045367;28;20174;-41
2022/01/05 07:06:09;;;;;;;2.37;1.70;;;15.10;59.00;16.00;99601.00;;;;5045111;28;20175;-41
2022/01/05 07:08:34;;;;;;;2.23;1.90;;;15.00;58.90;16.00;99610.00;;;;5044978;28;20175;-40
2022/01/05 07:11:00;;;;;;;2.30;1.80;;;15.10;59.00;16.00;99610.00;;;;5045149;28;20216;-41
2022/01/05 07:13:26;;;;;;;2.00;1.60;;;15.00;58.90;15.90;99609.00;;;;5045624;28;20267;-41
2022/01/05 07:15:51;;;;;;;2.80;1.90;;;15.00;58.90;15.90;99630.00;;;;5046078;28;20167;-40
2022/01/05 07:18:17;;;;;;;2.97;2.00;;;15.00;58.90;15.90;99629.00;;;;5045489;28;20240;-40
2022/01/05 07:20:45;;;;;;;2.00;1.70;;;15.00;58.90;15.90;99630.00;;;;5046909;28;20166;-41
2022/01/05 07:23:10;;;;;;;2.80;1.70;;;15.00;58.90;15.90;99633.00;;;;5049507;28;20202;-41
2022/01/05 07:25:36;;;;;;;1.77;1.67;;;15.00;58.90;15.90;99637.00;;;;5049259;28;20358;-40
2022/01/05 07:28:02;;;;;;;2.00;1.70;;;15.00;58.90;15.90;99628.00;;;;5048975;28;20179;-40
2022/01/05 07:30:27;;;;;;;2.73;1.80;;;14.90;58.90;15.90;99633.00;;;;5049222;28;20237;-41
2022/01/05 07:32:53;;;;;;;2.50;2.07;;;14.90;59.10;15.80;99628.00;;;;5048538;28;20170;-41
2022/01/05 07:35:19;;;;;;;2.27;1.67;;;14.90;58.90;15.80;99636.00;;;;5049149;28;20652;-41
2022/01/05 07:37:45;;;;;;;1.93;1.70;;;14.90;58.90;15.80;99634.00;;;;5048806;28;20232;-40
2022/01/05 07:40:11;;;;;;;2.00;1.70;;;14.90;58.90;15.80;99644.00;;;;5049088;28;20178;-41
2022/01/05 07:42:38;;;;;;;2.07;1.80;;;14.90;59.20;15.80;99637.00;;;;5055440;28;20206;-41
2022/01/05 07:45:05;;;;;;;1.83;1.67;;;14.90;59.10;15.80;99645.00;;;;5057880;28;20166;-41
2022/01/05 07:47:31;;;;;;;2.00;1.70;;;14.90;59.00;15.80;99648.00;;;;5060640;28;20189;-42
2022/01/05 07:49:57;;;;;;;2.27;1.70;;;14.80;59.00;15.70;99647.00;;;;5051267;28;20171;-41
2022/01/05 07:52:22;;;;;;;1.83;1.63;;;14.80;59.10;15.70;99647.00;;;;5049453;28;20178;-41
2022/01/05 07:54:49;;;;;;;2.57;1.97;;;14.80;59.20;15.60;99648.00;;;;5049304;28;20204;-42
2022/01/05 07:57:15;;;;;;;2.53;1.80;;;14.80;59.00;15.70;99663.00;;;;5048624;28;20201;-41
2022/01/05 07:59:41;;;;;;;2.33;1.77;;;14.80;59.10;15.70;99655.00;;;;5049128;28;20163;-41
2022/01/05 08:02:06;;;;;;;2.93;1.77;;;14.80;59.00;15.70;99658.00;;;;5049045;28;20194;-40
2022/01/05 08:04:32;;;;;;;2.53;1.90;;;14.80;59.00;15.70;99659.00;;;;5048705;28;20738;-41
2022/01/05 08:06:58;;;;;;;1.70;1.60;;;14.80;59.00;15.60;99671.00;;;;5048797;28;20593;-41
2022/01/05 08:09:24;;;;;;;2.60;1.80;;;14.80;59.10;15.60;99667.00;;;;5048077;28;20618;-40
2022/01/05 08:11:50;;;;;;;2.00;1.80;;;14.80;59.10;15.60;99676.00;;;;5048659;28;20186;-40
2022/01/05 08:14:16;;;;;;;1.67;1.57;;;14.70;59.10;15.60;99680.00;;;;5046993;28;20193;-41
2022/01/05 08:16:42;;;;;;;1.77;1.50;;;14.70;59.20;15.60;99687.00;;;;5048096;28;20198;-40
2022/01/05 08:19:07;;;;;;;2.27;1.80;;;14.70;59.10;15.60;99680.00;;;;5048541;28;20489;-41
2022/01/05 08:21:33;;;;;;;2.20;1.90;;;14.70;59.10;15.60;99693.00;;;;5047824;28;20198;-42
2022/01/05 08:23:59;;;;;;;2.37;1.97;;;14.70;59.10;15.50;99682.00;;;;5048344;28;20579;-40
2022/01/05 08:26:25;;;;;;;2.50;1.90;;;14.70;59.10;15.50;99690.00;;;;5043220;28;20660;-41
2022/01/05 08:28:50;;;;;;;2.03;1.80;;;14.70;59.10;15.60;99682.00;;;;5027190;28;20152;-42
2022/01/05 08:31:16;;;;;;;1.93;1.80;;;14.70;59.10;15.50;99682.00;;;;5030861;28;20277;-41
2022/01/05 08:33:42;;;;;;;1.80;1.70;;;14.60;59.00;15.50;99678.00;;;;5034800;28;20179;-41
2022/01/05 08:36:08;;;;;;;1.87;1.70;;;14.60;59.10;15.50;99689.00;;;;5027943;28;20185;-40
2022/01/05 08:38:35;;;;;;;2.50;1.90;;;14.60;59.10;15.50;99694.00;;;;5027592;28;20155;-40
2022/01/05 08:41:00;;;;;;;2.00;1.80;;;14.60;59.10;15.50;99706.00;;;;5043549;28;20194;-40
2022/01/05 08:43:26;;;;;;;2.10;1.70;;;14.60;59.10;15.50;99699.00;;;;5027830;28;20191;-41
2022/01/05 08:45:52;;;;;;;2.43;1.90;;;14.60;59.20;15.40;99706.00;;;;5028447;28;20159;-39
2022/01/05 08:48:18;;;;;;;2.97;1.90;;;14.50;59.10;15.50;99724.00;;;;5027479;28;20650;-41
2022/01/05 08:50:43;;;;;;;2.00;1.73;;;14.60;59.10;15.50;99726.00;;;;5028198;28;20587;-40
2022/01/05 08:53:09;;;;;;;2.93;2.10;;;14.50;59.10;15.50;99719.00;;;;5027963;28;20300;-41
2022/01/05 08:55:44;;;;;;;2.37;1.90;;;14.60;59.10;15.50;99727.00;;;;5028070;28;20163;-40
2022/01/05 08:58:10;;;;;;;3.00;1.97;;;14.50;59.00;15.40;99721.00;;;;5028023;28;20422;-41
2022/01/05 09:00:36;;;;;;;2.30;1.90;;;14.50;59.10;15.40;99723.00;;;;5026855;28;20631;-40
2022/01/05 09:03:02;;;;;;;2.10;1.80;;;14.50;59.10;15.40;99726.00;;;;5027443;28;20499;-43
2022/01/05 09:05:29;;;;;;;2.37;1.53;;;14.50;59.10;15.40;99722.00;;;;5028037;28;20457;-40
2022/01/05 09:07:55;;;;;;;2.67;2.10;;;14.50;59.20;15.40;99727.00;;;;5027784;28;20191;-41
2022/01/05 09:10:20;;;;;;;2.07;1.87;;;14.50;59.20;15.40;99726.00;;;;5027603;28;20611;-41
2022/01/05 09:12:46;;;;;;;3.20;1.87;;;14.50;59.20;15.30;99733.00;;;;5026977;28;20217;-41
2022/01/05 09:15:12;;;;;;;3.33;1.90;;;14.50;59.10;15.30;99729.00;;;;5027498;28;20193;-42
2022/01/05 09:17:38;;;;;;;2.77;1.83;;;14.50;59.10;15.30;99733.00;;;;5026946;28;20190;-40
2022/01/05 09:20:04;;;;;;;3.17;2.20;;;14.50;59.70;15.30;99727.00;;;;5026529;28;20183;-40
2022/01/05 09:22:30;;;;;;;3.70;1.90;;;14.40;59.70;15.30;99728.00;;;;5026856;28;20187;-41
2022/01/05 09:24:56;;;;;;;3.87;2.10;;;14.30;59.80;15.30;99711.00;;;;5026259;28;20186;-41
2022/01/05 09:27:21;;;;;;;5.80;2.13;;;14.40;60.10;15.30;99719.00;;;;5026408;28;20733;-40
2022/01/05 09:29:47;;;;;;;5.17;2.10;;;14.60;60.30;15.40;99717.00;;;;5025295;28;20175;-41
2022/01/05 09:32:13;;;;;;;8.50;1.90;;;14.80;60.00;15.50;99719.00;;;;5027489;28;20248;-40
2022/01/05 09:34:40;;;;;;;3.37;1.93;;;15.00;59.80;15.60;99716.00;;;;5028054;28;20175;-41
2022/01/05 09:37:22;;;;;;;5.77;1.80;;;15.20;59.70;15.70;99715.00;;;;5046236;28;20572;-41
2022/01/05 09:42:32;;;;;;;4.73;2.10;;;15.80;59.00;16.00;99710.00;;;;5045931;28;20224;-41
2022/01/05 09:44:58;;;;;;;3.43;1.87;;;16.10;58.60;16.20;99720.00;;;;5048006;28;20819;-41
2022/01/05 09:48:16;;;;;;;2.83;1.60;;;16.40;58.30;16.40;99736.00;;;;5049111;28;20210;-41
2022/01/05 09:50:50;;;;;;;4.37;1.90;;;16.70;58.20;16.60;99730.00;;;;5050427;28;20791;-42
2022/01/05 09:53:17;;;;;;;3.70;1.80;;;16.90;58.30;16.70;99719.00;;;;5049510;28;20682;-41
2022/01/05 09:55:42;;;;;;;4.27;2.00;;;17.00;58.50;16.90;99736.00;;;;5050266;28;20166;-41
2022/01/05 09:58:08;;;;;;;3.03;2.00;;;17.20;58.40;17.00;99740.00;;;;5049684;28;20201;-41
2022/01/05 10:00:34;;;;;;;4.63;2.10;;;17.40;58.00;17.20;99744.00;;;;5049174;28;20683;-41
2022/01/05 10:03:00;;;;;;;4.17;2.00;;;17.40;57.80;17.30;99752.00;;;;5047439;28;20223;-42
2022/01/05 10:05:25;;;;;;;4.17;1.93;;;17.60;57.80;17.40;99752.00;;;;5047433;28;20587;-41
2022/01/05 10:07:51;;;;;;;4.07;1.90;;;17.60;58.10;17.50;99752.00;;;;5048674;28;20201;-40
2022/01/05 10:10:17;;;;;;;4.73;2.00;;;17.70;58.20;17.60;99749.00;;;;5048428;28;20171;-41
2022/01/05 10:12:42;;;;;;;7.80;2.23;;;17.70;58.80;17.70;99762.00;;;;5048690;28;20228;-41
2022/01/05 10:15:08;;;;;;;4.30;2.10;;;17.80;58.70;17.80;99746.00;;;;5046990;28;20201;-48
2022/01/05 10:17:36;;;;;;;8.30;2.40;;;17.80;58.90;17.80;99755.00;;;;5048466;28;20286;-41
2022/01/05 10:20:09;;;;;;;7.27;2.37;;;18.00;58.80;17.90;99749.00;;;;5053156;28;20606;-40
2022/01/05 10:22:43;;;;;;;5.50;2.30;;;18.00;58.50;17.90;99743.00;;;;5054868;28;20734;-40
2022/01/05 10:25:20;;;;;;;8.83;2.33;;;17.90;58.50;18.00;99745.00;;;;5052903;28;20169;-41
2022/01/05 10:28:03;;;;;;;9.87;2.20;;;17.80;58.60;18.00;99739.00;;;;5048631;28;20770;-41
2022/01/05 10:30:41;;;;;;;8.37;2.57;;;17.90;58.70;18.00;99732.00;;;;5048538;28;20194;-42
2022/01/05 10:33:07;;;;;;;7.93;2.50;;;17.90;58.50;18.00;99735.00;;;;5048812;28;20168;-41
2022/01/05 10:35:33;;;;;;;7.47;2.70;;;17.80;58.60;18.00;99718.00;;;;5048810;28;20176;-41
2022/01/05 10:38:09;;;;;;;3.93;2.20;;;17.80;58.60;18.10;99735.00;;;;5046987;28;20292;-42
2022/01/05 10:40:39;;;;;;;7.50;2.40;;;17.80;58.60;18.10;99741.00;;;;5048555;28;20170;-42
2022/01/05 10:43:10;;;;;;;6.73;2.50;;;17.80;58.70;18.00;99740.00;;;;5050407;28;20267;-41
2022/01/05 10:45:45;;;;;;;5.07;2.40;;;17.70;58.50;18.00;99736.00;;;;5048696;28;20165;-41
2022/01/05 10:48:19;;;;;;;3.50;2.07;;;17.70;58.50;18.10;99742.00;;;;5048772;28;20196;-41
2022/01/05 10:50:46;;;;;;;10.07;2.73;;;17.70;58.70;18.10;99745.00;;;;5048128;28;20844;-41
2022/01/05 10:53:18;;;;;;;6.70;2.20;;;17.70;58.40;18.00;99736.00;;;;5048560;28;20199;-41